• Join FlightAware (Why Join?)
  • Login
  • US Flag 
03:58AM EDT


 

Airport Tracker/Info


-or-


 

Live Flight TrackerFlight Track Log ✈ UAL582 ✈ 09-May-2013 ✈ CYYZ - KORD

Flight Track Log - Related Links

Times and Time Zones

All times are in EDT time to prevent confusion due to time zone crossing. See the UAL582 flight status page for this flight to view local times or setup timezone preferences in your user account.

Time Position Orientation Groundspeed Altitude Reporting Facility
EDT Latitude Longitude Course Direction KTS MPH feet Rate Location/Type
05:15PM 43.6667 -79.6500 277° West 160 184 1,600  Level Toronto Center
05:16PM 43.6333 -79.7333 241° Southwest 210 242 3,300 2,100 Climbing Toronto Center
05:17PM 43.6167 -79.8000 251° West 260 299 5,900 3,180 Climbing Toronto Center
05:18PM 43.7006 -79.9732 277° West  Level FlightAware Approximate
05:18PM 43.6333 -79.9167 281° West 270 311 9,700  Level Toronto Center
05:19PM 43.7106 -80.0932 277° West  Level FlightAware Approximate
05:19PM 43.6500 -80.0000 285° West 290 334 11,500  Level Toronto Center
05:20PM 43.7167 -80.2135 270° West  Level FlightAware Approximate
05:20PM 43.6667 -80.1333 280° West 330 380 14,200  Level Toronto Center
05:21PM 43.7273 -80.3334 277° West  Level FlightAware Approximate
05:21PM 43.6833 -80.2500 281° West 340 391 17,100  Level Toronto Center
05:22PM 43.7167 -80.4000 287° West 350 403 19,300 2,220 Climbing Toronto Center
05:23PM 43.7000 -80.5333 260° West 360 414 21,600 1,860 Climbing Toronto Center
05:24PM 43.6833 -80.6667 260° West 380 437 23,100 1,560 Climbing Toronto Center
05:25PM 43.6333 -80.8333 248° West 390 449 24,800 1,740 Climbing Toronto Center
05:26PM 43.6000 -80.9667 251° West 390 449 26,600 1,680 Climbing Toronto Center
05:27PM 43.5667 -81.1000 251° West 400 460 28,200 1,380 Climbing Toronto Center
05:28PM 43.5500 -81.2667 262° West 410 472 29,400 1,320 Climbing Toronto Center
05:29PM 43.5167 -81.4333 255° West 420 483 30,900 1,200 Climbing Toronto Center
05:30PM 43.4833 -81.5667 251° West 420 483 31,900 540 Climbing Toronto Center
05:31PM 43.4500 -81.7167 253° West 420 483 32,000  Climbing Toronto Center
05:32PM 43.4333 -81.8833 262° West 420 483 32,000  Level Toronto Center
05:33PM 43.3833 -82.0167 243° Southwest 420 483 32,000  Level Toronto Center
05:34PM 43.3500 -82.2000 256° West 420 483 32,000  Level Toronto Center
05:35PM 43.3167 -82.3333 251° West 410 472 32,000 360 Level Toronto Center
05:36PM 43.3000 -82.5000 262° West 410 472 32,800 1,140 Climbing Toronto Center
05:37PM 43.2667 -82.6333 251° West 400 460 34,300 1,260 Climbing Toronto Center
05:38PM 43.2286 -82.8083 253° West 399 459 35,600 720 Climbing Cleveland Center
05:39PM 43.1903 -82.9522 250° West 399 459 36,000 180 Climbing Cleveland Center
05:40PM 43.1497 -83.0958 249° West 404 465 36,000  Level Cleveland Center
05:41PM 43.1111 -83.2367 249° West 404 465 36,000  Level Cleveland Center
05:42PM 43.0725 -83.3742 249° West 404 465 36,000 -120 Level Cleveland Center
05:43PM 43.0336 -83.5089 248° West 397 457 35,800 -840 Descending Cleveland Center
05:44PM 42.9947 -83.6517 250° West 397 457 34,400 -1,380 Descending Cleveland Center
05:45PM 42.9594 -83.7919 251° West 397 457 33,100 -1,200 Descending Cleveland Center
05:46PM 42.9469 -83.9417 264° West 397 457 32,100 -600 Descending Cleveland Center
05:47PM 42.9319 -84.0911 262° West 402 463 32,000 -60 Descending Cleveland Center
05:48PM 42.9169 -84.2433 262° West 408 470 32,000  Level Cleveland Center
05:49PM 42.9058 -84.3931 264° West 407 468 32,000  Level Cleveland Center
05:51PM 42.8886 -84.5425 261° West 401 461 32,000  Level Chicago Center
05:52PM 42.8725 -84.6908 262° West 397 457 32,000  Level Chicago Center
05:53PM 42.8572 -84.8400 262° West 398 458 32,000  Level Chicago Center
05:54PM 42.8428 -84.9889 263° West 397 457 32,000  Level Chicago Center
05:55PM 42.8233 -85.1628 261° West 389 448 32,000  Level Chicago Center
05:56PM 42.8075 -85.3092 262° West 390 449 32,000 -240 Level Chicago Center
05:57PM 42.7917 -85.4544 262° West 387 445 31,600 -1,140 Descending Chicago Center
05:58PM 42.7675 -85.6033 258° West 398 458 29,700 -1,920 Descending Chicago Center
05:59PM 42.7400 -85.7544 256° West 409 471 27,700 -1,980 Descending Chicago Center
06:00PM 42.7142 -85.8997 256° West 397 457 25,700 -2,040 Descending Chicago Center
06:01PM 42.6878 -86.0439 256° West 390 449 23,600 -2,220 Descending Chicago Center
06:02PM 42.6556 -86.2206 256° West 398 458 21,200 -1,800 Descending Chicago Center
06:03PM 42.6281 -86.3583 255° West 383 441 20,000 -1,200 Descending Chicago Center
06:04PM 42.6028 -86.4972 256° West 378 435 18,800 -1,680 Descending Chicago Center
06:06PM 42.5508 -86.7686 256° West 367 422 14,800 -1,980 Descending Chicago Center
06:07PM 42.5156 -86.8939 249° West 358 412 12,800 -2,040 Descending Chicago Center
06:08PM 42.4769 -87.0411 250° West 349 402 10,700 -1,500 Descending Chicago Center
06:09PM 42.4469 -87.1461 249° West 301 346 9,800 -840 Descending Chicago Center
06:10PM 42.4186 -87.2425 248° West 280 322 9,000 -420 Descending Chicago Center
06:11PM 42.3933 -87.3389 250° West 274 315 9,000  Level Chicago Center
06:12PM 42.3661 -87.4461 251° West 268 308 9,000  Level Chicago Center
06:13PM 42.3406 -87.5161 244° Southwest 222 255 9,000 -480 Level Chicago Center
06:14PM 42.3019 -87.5589 219° Southwest 183 211 8,100 -1,020 Descending Chicago Center
06:15PM 42.2633 -87.6011 219° Southwest 179 206 7,000 -1,020 Descending Chicago Center
06:16PM 42.2261 -87.6431 220° Southwest 177 204 6,000 -960 Descending Chicago Center
06:17PM 42.1811 -87.6933 220° Southwest 175 201 5,100 -720 Descending Chicago Center
06:18PM 42.1450 -87.7331 219° Southwest 170 196 4,500 -840 Descending Chicago Center
06:20PM 42.1000 -87.7833 220° Southwest 171 197 3,500 -960 Descending Chicago TRACON
06:21PM 42.0667 -87.8167 217° Southwest 168 193 2,600 -900 Descending Chicago TRACON